This is the latest recevied weather packets stored in our database for station/object DG9BJA-13. If no packets are shown the sender has not sent any weather packets the latest 10 day(s).
| Time | Temp. | Humidity | Pressure | Rain* | Wind** | Luminosity | Snow |
|---|---|---|---|---|---|---|---|
| 1777129576 | 17.22° C | 44% | 1017.2 hPa | 0 mm | - | 473 W/m² | - |
| 1777128976 | 17.22° C | 44% | 1017.3 hPa | 0 mm | - | 497 W/m² | - |
| 1777128376 | 17.22° C | 44% | 1017.3 hPa | 0 mm | - | 517 W/m² | - |
| 1777127776 | 17.78° C | 42% | 1017.3 hPa | 0 mm | - | 538 W/m² | - |
| 1777127176 | 17.78° C | 42% | 1017.3 hPa | 0 mm | - | 557 W/m² | - |
| 1777126576 | 17.78° C | 43% | 1017.3 hPa | 0 mm | - | 578 W/m² | - |
| 1777125976 | 17.22° C | 43% | 1017.2 hPa | 0 mm | - | 594 W/m² | - |
| 1777125376 | 17.22° C | 42% | 1017.4 hPa | 0 mm | - | 615 W/m² | - |
| 1777124776 | 17.22° C | 45% | 1017.4 hPa | 0 mm | - | 635 W/m² | - |
| 1777124176 | 16.67° C | 46% | 1017.4 hPa | 0 mm | - | 654 W/m² | - |
| 1777123576 | 16.67° C | 48% | 1017.7 hPa | 0 mm | - | 666 W/m² | - |
| 1777122976 | 16.67° C | 48% | 1017.7 hPa | 0 mm | - | 680 W/m² | - |
| 1777122376 | 16.11° C | 49% | 1017.7 hPa | 0 mm | - | 701 W/m² | - |
| 1777121776 | 15.56° C | 51% | 1017.8 hPa | 0 mm | - | 710 W/m² | - |
| 1777121176 | 15.56° C | 51% | 1017.8 hPa | 0 mm | - | 714 W/m² | - |
| 1777120576 | 15.56° C | 50% | 1017.9 hPa | 0 mm | - | 728 W/m² | - |
| 1777119976 | 15.56° C | 52% | 1018.2 hPa | 0 mm | - | 737 W/m² | - |
| 1777119376 | 15.56° C | 51% | 1018.2 hPa | 0 mm | - | 728 W/m² | - |
| 1777118776 | 15° C | 54% | 1018.3 hPa | 0 mm | - | 758 W/m² | - |
| 1777118175 | 14.44° C | 55% | 1018.3 hPa | 0 mm | - | 763 W/m² | - |
| 1777117576 | 14.44° C | 54% | 1018.3 hPa | 0 mm | - | 768 W/m² | - |
| 1777116976 | 13.89° C | 56% | 1018.5 hPa | 0 mm | - | 766 W/m² | - |
| 1777116376 | 13.33° C | 59% | 1018.7 hPa | 0 mm | - | 761 W/m² | - |
| 1777115776 | 13.89° C | 59% | 1018.7 hPa | 0 mm | - | 770 W/m² | - |
| 1777115176 | 13.33° C | 61% | 1018.8 hPa | 0 mm | - | 765 W/m² | - |
* Rain latest hour (hover to see other rain measurements)
** Current wind speed in m/s (hover to see current wind gust speed)